Etusivu
METAR-TAF:

METAR-TAF

Lentoasemat :

Leknesin lentoasema

Leknes, Norja

Leveyspiiri: 68-09N, Pituuspiiri: 013-37E, korkeus merenpinnasta: 2 m

Tämänhetkinen sää

Tämä raportti tehtiin 32 minuuttia sitten, kello 16.50 UTC
Tuuli 4 kn kaakosta, vaihdellen idän ja etelän välillä
Lämpötila 3°C
Kosteus 93%
Ilmanpaine 1005 hPa
Näkyvyys 10 km tai enemmän
Hajanaisia pilviä 1000 ft:n korkeudessa
Hajonneita pilviä 1500 ft:n korkeudessa
sadetta

METAR: ENLK 211650Z 13004KT 080V190 9999 RA SCT010 BKN015 03/02 Q1005

Aika: 19:22 (17:22 UTC)


TAF: puuttuu

Säähavainnot ja -ennusteet yli 4000 lentoasemalta (METAR- ja TAF-raportit).

Käytössä olevat sääasemat on merkitty karttaan keltaisilla ja punaisilla pisteillä.

Aseta hiiri pisteen päälle nähdäksesi sääaseman nimen.

Klikkaa sitten nähdäksesi säähavainnot ja -ennusteet.

Kartan vaihtaminen: klikkaa mustalla rastilla varustettuja vihreitä pisteitä, niin voit zoomata sisään; viivalla varustettua vihreää pistettä, niin voit zoomata ulos tai vihreitä nuolia, niin pääset viereisille kartoille.


METAR-TAF: